EVRA/RIX METAR and TAF weather

Enter ICAO airport designator
Station Type Date Time Source
EVRA METAR 2019/06/18 15:20 UTC NOAA

EVRA 181520Z 35007KT 310V020 CAVOK 24/13 Q1019 NOSIG


Station Type Date Time Source
EVRA Decoded METAR 2019/06/18 15:20 UTC NOAA

Riga International Airport, Latvia (EVRA) 56-55N 023-58E
Jun 18, 2019 - 11:20 AM EDT / 2019.06.18 1520 UTC
Wind: from the N (350 degrees) at 8 MPH (7 KT) (direction variable):0
Visibility: greater than 7 mile(s):0
Temperature: 75 F (24 C)
Dew Point: 55 F (13 C)
Relative Humidity: 50%
Pressure (altimeter): 30.09 in. Hg (1019 hPa)
ob: EVRA 181520Z 35007KT 310V020 CAVOK 24/13 Q1019 NOSIG
cycle: 15

Station Type Date Time Source
EVRA TAF 2019/06/18 15:06 UTC NOAA

TAF EVRA 181402Z 1815/1915 32007KT 9999 SCT040
BECMG 1818/1820 VRB02KT PROB40
TEMPO 1900/1903 3000 BR SCT010
BECMG 1905/1907 18007KT

Example: see airport list